General Aviation Weather

Text Reports

Enter one or more of the following location identifiers separated by a space:

Zip Code, Four-Character ICAO or Three-Character IATA airport codes.

METAR - Aviation Routine Weather Report
KALX - Alexander City, Alabama
Updated at 7:35 PM GMT on March 28, 2015 (2:35 PM CDT):
METAR KALX 281935Z AUTO 27009G17KT 10SM CLR 12/M13 A3019 RMK AO2 T01231130
TAF - Terminal Area Forecast
KALX - Alexander City, Alabama
Updated at 7:35 PM GMT on March 28, 2015 (2:35 PM CDT):
No TAF is currently available for this location.
Decoded:
No decoded TAF is available.
PIREP - Pilot Weather Report
KALX - Alexander City, Alabama
Updated at 7:35 PM GMT on March 28, 2015 (2:35 PM CDT):
No PIREP is currently available for this location.
AIRMET - Airmens Meteorological Information
KALX - Alexander City, Alabama
Updated at 7:35 PM GMT on March 28, 2015 (2:35 PM CDT):
No AIRMET is currently available for this location.
SIGMET - Significant Meteorological Information
KALX - Alexander City, Alabama
Updated at 7:35 PM GMT on March 28, 2015 (2:35 PM CDT):
No SIGMET is currently available for this location.
NOTAM - Notice to Airmen
KALX - Alexander City, Alabama
Updated at 7:35 PM GMT on March 28, 2015 (2:35 PM CDT):
No NOTAM is currently available for this location.
Forecast Area
KALX - Alexander City, Alabama
Updated at 7:35 PM GMT on March 28, 2015 (2:35 PM CDT):
No NOTAM is currently available for this location.
Aviation Weather Maps